createdAt,value
2018-08-24T00:04:49.919Z,99.20
2018-08-24T00:09:43.172Z,98.80
2018-08-24T00:14:36.905Z,98.60
2018-08-24T00:19:30.203Z,98.40
2018-08-24T00:24:23.484Z,98.10
2018-08-24T00:29:16.750Z,99.70
2018-08-24T00:34:09.994Z,99.90
2018-08-24T00:39:05.172Z,99.90
2018-08-24T00:43:58.451Z,99.90
2018-08-24T00:48:53.224Z,99.90
2018-08-24T00:53:47.274Z,99.90
2018-08-24T00:58:40.592Z,99.90
2018-08-24T01:03:33.828Z,99.90
2018-08-24T01:08:27.210Z,99.90
2018-08-24T01:13:20.584Z,99.90
2018-08-24T01:18:16.844Z,99.90
2018-08-24T01:23:10.132Z,99.90
2018-08-24T01:28:03.514Z,99.90
2018-08-24T01:32:57.712Z,99.90
2018-08-24T01:37:50.990Z,99.90
2018-08-24T01:42:44.274Z,99.90
2018-08-24T01:47:37.520Z,99.90
2018-08-24T01:52:30.759Z,99.90
2018-08-24T01:57:24.084Z,99.90
2018-08-24T02:02:17.346Z,99.90
2018-08-24T02:07:10.613Z,99.90
2018-08-24T02:12:04.002Z,99.90
2018-08-24T02:16:57.256Z,99.90
2018-08-24T02:21:56.278Z,99.90
2018-08-24T02:26:49.566Z,99.90
2018-08-24T02:31:49.203Z,99.90
2018-08-24T02:36:42.710Z,99.90
2018-08-24T02:41:35.942Z,99.90
2018-08-24T02:46:29.702Z,99.90
2018-08-24T02:51:23.022Z,99.90
2018-08-24T02:56:16.364Z,99.90
2018-08-24T03:01:09.644Z,99.90
2018-08-24T03:06:02.974Z,99.90
2018-08-24T03:10:56.274Z,99.90
2018-08-24T03:15:49.498Z,99.90
2018-08-24T03:20:42.733Z,99.90
2018-08-24T03:25:36.020Z,99.90
2018-08-24T03:30:29.278Z,99.90
2018-08-24T03:35:22.567Z,99.90
2018-08-24T03:40:15.848Z,99.90
2018-08-24T03:45:09.124Z,99.90
2018-08-24T03:50:02.375Z,99.90
2018-08-24T03:54:55.628Z,99.90
2018-08-24T03:59:48.896Z,99.90
2018-08-24T04:04:42.170Z,99.90
2018-08-24T04:09:35.455Z,99.90
2018-08-24T04:14:28.748Z,99.90
2018-08-24T04:19:26.816Z,99.90
2018-08-24T04:24:20.086Z,99.90
2018-08-24T04:29:13.330Z,99.90
2018-08-24T04:34:06.699Z,99.90
2018-08-24T04:38:59.985Z,99.90
2018-08-24T04:43:53.382Z,99.90
2018-08-24T04:48:47.836Z,99.90
2018-08-24T04:53:41.888Z,99.90
2018-08-24T04:58:35.249Z,99.90
2018-08-24T05:03:28.488Z,99.90
2018-08-24T05:08:21.758Z,99.90
2018-08-24T05:13:15.036Z,99.90
2018-08-24T05:18:08.325Z,99.90
2018-08-24T05:23:01.625Z,99.90
2018-08-24T05:27:54.906Z,99.90
2018-08-24T05:32:48.232Z,99.90
2018-08-24T05:37:41.532Z,99.90
2018-08-24T05:42:34.797Z,99.90
2018-08-24T05:47:28.152Z,99.90
2018-08-24T05:52:21.436Z,99.90
2018-08-24T05:57:14.862Z,99.90
2018-08-24T06:02:08.202Z,99.90
2018-08-24T06:07:01.427Z,99.90
2018-08-24T06:11:54.672Z,99.90
2018-08-24T06:16:53.643Z,99.90
2018-08-24T06:21:46.846Z,99.90
2018-08-24T06:26:40.167Z,99.90
2018-08-24T06:31:33.449Z,99.90
2018-08-24T06:36:27.498Z,99.90
2018-08-24T06:41:20.738Z,99.90
2018-08-24T06:46:14.017Z,99.90
2018-08-24T06:51:07.324Z,99.90
2018-08-24T06:56:00.589Z,99.90
2018-08-24T07:00:53.848Z,99.60
2018-08-24T07:05:47.157Z,98.50
2018-08-24T07:10:40.396Z,98.50
2018-08-24T07:15:33.677Z,98.40
2018-08-24T07:20:27.533Z,98.20
2018-08-24T07:25:20.942Z,96.90
2018-08-24T07:30:14.210Z,98.20
2018-08-24T07:35:08.123Z,98.30
2018-08-24T07:40:01.351Z,97.90
2018-08-24T07:45:01.562Z,97.50
2018-08-24T07:49:54.830Z,97.60
2018-08-24T07:54:49.735Z,97.60
2018-08-24T07:59:43.012Z,97.20
2018-08-24T08:04:36.590Z,96.80
2018-08-24T08:09:29.824Z,96.00
2018-08-24T08:14:23.118Z,95.90
2018-08-24T08:19:16.390Z,96.00
2018-08-24T08:24:09.642Z,95.80
2018-08-24T08:29:04.036Z,95.60
2018-08-24T08:33:57.298Z,95.40
2018-08-24T08:38:50.540Z,94.90
2018-08-24T08:43:43.852Z,94.60
2018-08-24T08:48:37.138Z,94.20
2018-08-24T08:53:30.430Z,94.10
2018-08-24T08:58:23.659Z,93.50
2018-08-24T09:03:17.486Z,92.70
2018-08-24T09:08:10.709Z,92.60
2018-08-24T09:13:04.091Z,92.60
2018-08-24T09:19:01.033Z,92.40
2018-08-24T09:24:00.018Z,91.60
2018-08-24T09:28:54.463Z,91.90
2018-08-24T09:33:47.763Z,89.40
2018-08-24T09:38:41.187Z,80.90
2018-08-24T09:43:40.021Z,76.00
2018-08-24T09:48:38.833Z,75.50
2018-08-24T09:53:37.718Z,72.20
2018-08-24T09:58:31.119Z,73.60
2018-08-24T10:03:30.248Z,72.60
2018-08-24T10:08:33.999Z,70.60
2018-08-24T10:13:27.346Z,68.90
2018-08-24T10:18:20.574Z,65.80
2018-08-24T10:23:14.330Z,68.30
2018-08-24T10:28:07.554Z,71.40
2018-08-24T10:33:00.821Z,71.50
2018-08-24T10:37:54.165Z,72.00
2018-08-24T10:42:47.468Z,71.10
2018-08-24T10:47:40.810Z,72.50
2018-08-24T10:52:34.049Z,72.30
2018-08-24T10:57:27.285Z,72.40
2018-08-24T11:02:20.565Z,69.10
2018-08-24T11:07:14.020Z,66.80
2018-08-24T11:12:07.216Z,67.80
2018-08-24T11:17:00.472Z,67.10
2018-08-24T11:21:54.467Z,66.70
2018-08-24T11:26:47.751Z,64.50
2018-08-24T11:31:41.008Z,65.10
2018-08-24T11:36:34.260Z,65.00
2018-08-24T11:41:27.527Z,62.40
2018-08-24T11:46:20.910Z,62.10
2018-08-24T11:51:14.260Z,59.20
2018-08-24T11:56:08.140Z,60.30
2018-08-24T12:01:01.574Z,61.00
2018-08-24T12:05:54.826Z,59.40
2018-08-24T12:10:49.684Z,58.10
2018-08-24T12:15:42.984Z,55.60
2018-08-24T12:20:36.288Z,56.50
2018-08-24T12:25:29.624Z,53.70
2018-08-24T12:30:23.541Z,50.60
2018-08-24T12:35:16.910Z,51.20
2018-08-24T12:40:10.330Z,49.70
2018-08-24T12:45:03.822Z,49.00
2018-08-24T12:49:57.087Z,48.70
2018-08-24T12:54:51.349Z,47.00
2018-08-24T12:59:45.220Z,45.80
2018-08-24T13:04:38.515Z,47.50
2018-08-24T13:09:31.797Z,48.40
2018-08-24T13:14:25.129Z,47.20
2018-08-24T13:19:19.059Z,47.50
2018-08-24T13:24:12.285Z,46.30
2018-08-24T13:29:05.846Z,45.90
2018-08-24T13:33:59.138Z,44.30
2018-08-24T13:38:52.446Z,43.20
2018-08-24T13:43:46.450Z,42.50
2018-08-24T13:48:39.664Z,42.80
2018-08-24T13:53:33.037Z,44.30
2018-08-24T13:58:26.314Z,45.10
2018-08-24T14:03:19.644Z,45.40
2018-08-24T14:08:13.002Z,43.30
2018-08-24T14:13:06.323Z,42.50
2018-08-24T14:17:59.540Z,44.00
2018-08-24T14:22:52.882Z,43.40
2018-08-24T14:27:46.426Z,44.50
2018-08-24T14:32:39.807Z,44.60
2018-08-24T14:37:33.073Z,44.60
2018-08-24T14:42:26.568Z,44.80
2018-08-24T14:47:19.820Z,43.80
2018-08-24T14:52:13.130Z,44.00
2018-08-24T14:57:06.404Z,44.80
2018-08-24T15:01:59.648Z,44.50
2018-08-24T15:06:52.916Z,43.90
2018-08-24T15:11:46.160Z,45.00
2018-08-24T15:16:39.382Z,45.90
2018-08-24T15:21:32.972Z,45.00
2018-08-24T15:26:26.223Z,45.00
2018-08-24T15:31:19.476Z,46.40
2018-08-24T15:36:12.839Z,46.10
2018-08-24T15:41:06.215Z,47.10
2018-08-24T15:45:59.534Z,46.70
2018-08-24T15:50:52.786Z,47.50
2018-08-24T15:55:46.063Z,47.80
2018-08-24T16:00:39.350Z,46.30
2018-08-24T16:05:32.605Z,44.60
2018-08-24T16:10:26.048Z,45.10
2018-08-24T16:15:19.322Z,43.90
2018-08-24T16:20:12.734Z,44.80
2018-08-24T16:25:05.998Z,46.60
2018-08-24T16:29:59.302Z,47.10
2018-08-24T16:34:52.551Z,46.70
2018-08-24T16:39:45.788Z,48.00
2018-08-24T16:44:39.116Z,51.00
2018-08-24T16:49:32.383Z,52.90
2018-08-24T16:54:25.716Z,53.40
2018-08-24T16:59:19.023Z,54.50
2018-08-24T17:04:12.284Z,54.20
2018-08-24T17:09:09.714Z,54.10
2018-08-24T17:14:02.962Z,53.70
2018-08-24T17:19:02.969Z,54.40
2018-08-24T17:23:56.260Z,54.10
2018-08-24T17:28:49.541Z,54.60
2018-08-24T17:33:42.774Z,55.10
2018-08-24T17:38:36.006Z,56.40
2018-08-24T17:43:30.245Z,56.40
2018-08-24T17:48:23.526Z,57.20
2018-08-24T17:53:16.855Z,57.10
2018-08-24T17:58:10.703Z,57.10
2018-08-24T18:03:04.042Z,58.50
2018-08-24T18:07:57.246Z,57.80
2018-08-24T18:12:50.473Z,58.30
2018-08-24T18:17:43.733Z,58.50
2018-08-24T18:22:37.021Z,59.10
2018-08-24T18:27:30.306Z,59.60
2018-08-24T18:32:23.589Z,60.80
2018-08-24T18:37:16.917Z,61.80
2018-08-24T18:42:10.226Z,61.60
2018-08-24T18:47:03.530Z,61.20
2018-08-24T18:51:56.798Z,61.30
2018-08-24T18:56:51.045Z,61.70
2018-08-24T19:01:44.300Z,62.20
2018-08-24T19:06:37.540Z,62.00
2018-08-24T19:11:36.494Z,62.20
2018-08-24T19:16:29.768Z,62.50
2018-08-24T19:21:29.278Z,62.70
2018-08-24T19:26:22.748Z,62.90
2018-08-24T19:31:16.024Z,63.60
2018-08-24T19:36:09.307Z,64.20
2018-08-24T19:41:09.022Z,64.30
2018-08-24T19:46:02.278Z,64.20
2018-08-24T19:50:55.531Z,64.20
2018-08-24T19:55:48.787Z,64.60
2018-08-24T20:00:42.064Z,64.90
2018-08-24T20:05:35.360Z,65.40
2018-08-24T20:10:28.631Z,65.50
2018-08-24T20:16:25.348Z,65.70
2018-08-24T20:21:18.627Z,65.70
2018-08-24T20:26:11.884Z,66.70
2018-08-24T20:31:05.258Z,67.70
2018-08-24T20:35:58.526Z,67.90
2018-08-24T20:40:51.775Z,68.30
2018-08-24T20:45:45.062Z,68.60
2018-08-24T20:50:38.344Z,69.10
2018-08-24T20:55:31.645Z,69.60
2018-08-24T21:00:25.001Z,70.30
2018-08-24T21:05:18.325Z,70.60
2018-08-24T21:10:11.683Z,71.10
2018-08-24T21:15:05.146Z,71.30
2018-08-24T21:19:58.370Z,71.00
2018-08-24T21:24:51.691Z,71.30
2018-08-24T21:29:44.954Z,71.40
2018-08-24T21:34:38.226Z,71.90
2018-08-24T21:39:31.463Z,72.40
2018-08-24T21:44:24.753Z,72.30
2018-08-24T21:49:18.280Z,72.30
2018-08-24T21:54:11.618Z,72.50
2018-08-24T21:59:05.083Z,72.30
2018-08-24T22:03:59.900Z,72.70
2018-08-24T22:08:53.143Z,72.40
2018-08-24T22:13:46.450Z,72.90
2018-08-24T22:18:39.698Z,72.40
2018-08-24T22:23:32.957Z,72.20
2018-08-24T22:28:26.232Z,72.50
2018-08-24T22:33:19.599Z,72.40
2018-08-24T22:38:13.461Z,72.60
2018-08-24T22:43:11.296Z,72.60
2018-08-24T22:48:04.818Z,73.10
2018-08-24T22:52:58.108Z,72.80
2018-08-24T22:57:51.378Z,73.40
2018-08-24T23:02:44.598Z,73.40
2018-08-24T23:07:37.819Z,73.30
2018-08-24T23:12:31.089Z,74.20
2018-08-24T23:17:25.258Z,73.90
2018-08-24T23:22:18.524Z,74.40
2018-08-24T23:27:11.874Z,75.00
2018-08-24T23:32:05.263Z,75.10
2018-08-24T23:36:58.466Z,74.90
2018-08-24T23:41:52.756Z,75.20
2018-08-24T23:46:46.016Z,74.90
2018-08-24T23:51:39.301Z,75.40
2018-08-24T23:56:32.550Z,75.50
